63NY weather

Shear Airport
Youngstown, New York, United States

Public forecast

Using degrees Fahrenheit for public forecast. Weather courtesy of forecast.io.

Closest aviation weather report (METAR) to Shear Airport

Closest report is Niagara Falls International Airport, 9.2 nm (17.0 km) S. Retrieved 2019/10/17 01:18 UTC (10 minutes ago):

KIAG 170118Z COR 25007KT 10SM BKN042 OVC050 08/06 A2950

Closest aviation forecast (TAF) to Shear Airport

Closest forecast is Niagara Falls International Airport, 9.2 nm (17.0 km) S. Retrieved 2019-10-17 00:40 UTC (48 minutes ago):

TAF KIAG 162338Z 1700/1724 25014G22KT P6SM VCSH OVC040 FM170600 28014G22KT P6SM -SHRA OVC015 FM171200 30020G30KT 5SM -SHRA BR OVC015 FM172000 30018G26KT P6SM VCSH OVC025